Nearby METAR Reports

 

ESTA - Ängelholm, Sweden
Distance from station: SSV 17km
Uppdaterad: 2021-09-23 23:20
Klart
Klart
 Vind från VNV
Vind: VNV 39 km/h
Temperatur: 13°C
Daggpunkt: 8°C
Luftfuktighet: 72%
Barometer: 1000 hPa
Clouds: Klart
Visibility: 10 km
2021/09/23 21:20 ESTA 232120Z AUTO 30021KT 9999 NCD 13/08 Q1000
ESMT - Halmstad, Sweden
Distance from station: N 26km
Uppdaterad: 2021-09-23 23:20
Few Clouds
Few Clouds
 Vind från NV
Vind: NV 31 km/h
Temperatur: 12°C
Daggpunkt: 9°C
Luftfuktighet: 82%
Barometer: 999 hPa
Clouds: Few Clouds
Visibility: 10 km
Cloud details: Few Clouds 792 m
2021/09/23 21:20 ESMT 232120Z AUTO 31017KT 9999 FEW026/// 12/09 Q0999
 
ESTL - Ljungbyhed, Sweden
Distance from station: SSO 45km
Uppdaterad: 2021-09-23 23:20
Few Clouds
Few Clouds
 Vind från VNV
Vind: VNV 28 km/h
Temperatur: 12°C
Daggpunkt: 8°C
Luftfuktighet: 77%
Barometer: 1000 hPa
Clouds: Few Clouds
Visibility: 10 km
Cloud details: Few Clouds 1494 m
2021/09/23 21:20 ESTL 232120Z AUTO 29015KT 9999 FEW049/// 12/08 Q1000
EKCH - Copenhagen/Kastrup, Denmark
Distance from station: S 92km
Uppdaterad: 2021-09-23 23:20
Övervägande molnigt
Övervägande molnigt
 Vind från VNV
Vind: VNV 24 km/h, Vindby: 48 km/h
Temperatur: 13°C
Daggpunkt: 8°C
Luftfuktighet: 72%
Barometer: 1002 hPa
Clouds: Övervägande molnigt
Visibility: 10 km
Cloud details: Övervägande molnigt 884 m
2021/09/23 21:20 EKCH 232120Z AUTO 30013G26KT 9999 BKN029/// 13/08 Q1002 TEMPO 29018G28KT
 
ESMK - Kristianstad/Everöd, Sweden
Distance from station: SO 93km
Uppdaterad: 2021-09-23 23:20
Övervägande molnigt
Övervägande molnigt
 Vind från VNV
Vind: VNV 26 km/h
Temperatur: 12°C
Daggpunkt: 8°C
Luftfuktighet: 77%
Barometer: 998 hPa
Clouds: Övervägande molnigt
Visibility: 10 km
Cloud details: Övervägande molnigt 1280 m
2021/09/23 21:20 ESMK 232120Z AUTO 29014KT 9999 BKN042/// 12/08 Q0998
ESMS - Malmö/Sturup, Sweden
Distance from station: SSO 104km
Uppdaterad: 2021-09-23 23:20
Delvis molnigt
Delvis molnigt
 Vind från VNV
Vind: VNV 43 km/h
Temperatur: 13°C
Daggpunkt: 8°C
Luftfuktighet: 72%
Barometer: 1000 hPa
Clouds: Delvis molnigt
Visibility: 10 km
Cloud details: Delvis molnigt 884 m
2021/09/23 21:20 ESMS 232120Z 30023KT 9999 SCT029 13/08 Q1000
 
EKRK - Copenhagen/Roskilde, Denmark
Distance from station: SSV 108km
Uppdaterad: 2021-09-23 23:20
Övervägande molnigt
Övervägande molnigt
 Vind från NV
Vind: NV 33 km/h
Temperatur: 13°C
Daggpunkt: 9°C
Luftfuktighet: 77%
Barometer: 1002 hPa
Clouds: Övervägande molnigt
Visibility: 10 km
Cloud details: Övervägande molnigt 762 m
2021/09/23 21:20 EKRK 232120Z AUTO 31018KT 9999 BKN025/// 13/09 Q1002
ESMX - Växjö/Kronoberg, Sweden
Distance from station: ONO 124km
Uppdaterad: 2021-09-23 23:20
Genommulet
Genommulet
 Vind från VNV
Vind: VNV 20 km/h
Temperatur: 9°C
Wind Chill: 6°C
Daggpunkt: 8°C
Luftfuktighet: 94%
Barometer: 996 hPa
Clouds: Genommulet
Visibility: 10 km
Cloud details: Genommulet 366 m
2021/09/23 21:20 ESMX 232120Z AUTO 29011KT 260V330 9999 OVC012/// 09/08 Q0996
 
EKAH - Tirstrup, Denmark
Distance from station: V 141km
Uppdaterad: 2021-09-23 23:20
Klart
Klart
 Vind från VNV
Vind: VNV 30 km/h
Temperatur: 12°C
Daggpunkt: 9°C
Luftfuktighet: 82%
Barometer: 1003 hPa
Clouds: Klart
Visibility: 10 km
2021/09/23 21:20 EKAH 232120Z AUTO 29016KT 9999 NCD 12/09 Q1003
ESGG - Göteborg/Landvetter, Sweden
Distance from station: NNV 142km
Uppdaterad: 2021-09-23 23:20
Klart
Klart
 Vind från V
Vind: V 15 km/h
Temperatur: 10°C
Wind Chill: 8°C
Daggpunkt: 7°C
Luftfuktighet: 82%
Barometer: 998 hPa
Summering: Klart
Visibility: greater than 10 km
2021/09/23 21:20 ESGG 232120Z 28008KT CAVOK 10/07 Q0998
 
ESDF - Ronneby, Sweden
Distance from station: O 147km
Uppdaterad: 2021-09-23 23:20
Genommulet
Genommulet
 Vind från VNV
Vind: VNV 20 km/h
Temperatur: 10°C
Wind Chill: 7°C
Daggpunkt: 8°C
Luftfuktighet: 88%
Barometer: 996 hPa
Clouds: Genommulet
Visibility: 10 km
Cloud details: Genommulet 518 m
2021/09/23 21:20 ESDF 232120Z AUTO 30011KT 9999 OVC017/// 10/08 Q0996
ESGJ - Jönköping Airport, Sweden
Distance from station: NNO 164km
Uppdaterad: 2021-09-23 23:20
Delvis molnigt
Delvis molnigt
 Vind från V
Vind: V 17 km/h
Temperatur: 8°C
Wind Chill: 5°C
Daggpunkt: 8°C
Luftfuktighet: 100%
Barometer: 996 hPa
Clouds: Delvis molnigt
Visibility: 10 km
Cloud details: Delvis molnigt 305 m
2021/09/23 21:20 ESGJ 232120Z 28009KT 9999 SCT010 08/08 Q0996
 
EKRN - Rönne, Denmark
Distance from station: SO 191km
Uppdaterad: 2021-09-23 23:20
Övervägande molnigt
Övervägande molnigt
 Vind från VNV
Vind: VNV 50 km/h, Vindby: 70 km/h
Temperatur: 13°C
Daggpunkt: 8°C
Luftfuktighet: 72%
Barometer: 1000 hPa
Clouds: Övervägande molnigt
Visibility: 10 km
Cloud details: Övervägande molnigt 884 m
2021/09/23 21:20 EKRN 232120Z AUTO 30027G38KT 9999 BKN029/// 13/08 Q1000
EKOD - Odense/Beldringe, Denmark
Distance from station: VSV 193km
Uppdaterad: 2021-09-23 17:50
NOT Current
Övervägande molnigt
Övervägande molnigt
 Vind från V
Vind: V 56 km/h, Vindby: 85 km/h
Temperatur: 13°C
Daggpunkt: 7°C
Luftfuktighet: 67%
Barometer: 1002 hPa
Clouds: Övervägande molnigt
Visibility: 10 km
Cloud details: Few Clouds 1036 m
Delvis molnigt 1219 m
Övervägande molnigt 2134 m
2021/09/23 15:50 EKOD 231550Z 28030G46KT 240V300 9999 FEW034 SCT040 BKN070 13/07 Q1002
 
EKYT - AAlborg, Denmark
Distance from station: VNV 199km
Uppdaterad: 2021-09-23 23:25
Klart
Klart
 Vind från VNV
Vind: VNV 22 km/h, Vindby: 43 km/h
Temperatur: 13°C
Daggpunkt: 8°C
Luftfuktighet: 72%
Barometer: 1003 hPa
Clouds: Klart
Visibility: 10 km
2021/09/23 21:25 EKYT 232125Z AUTO 30012G23KT 9999 NCD 13/08 Q1003
ESMQ - Kalmar, Sweden
Distance from station: O 211km
Uppdaterad: 2021-09-23 23:20
Few Clouds
Few Clouds
 Vind från VNV
Vind: VNV 22 km/h
Temperatur: 9°C
Wind Chill: 6°C
Daggpunkt: 7°C
Luftfuktighet: 87%
Barometer: 993 hPa
Clouds: Few Clouds
Visibility: 10 km
Cloud details: Few Clouds 640 m
2021/09/23 21:20 ESMQ 232120Z AUTO 30012KT 9999 FEW021/// 09/07 Q0993
 
ESGT - Trollhättan, Sweden
Distance from station: N 212km
Uppdaterad: 2021-09-23 23:20
Klart
Klart
 Vind från VNV
Vind: VNV 19 km/h
Temperatur: 9°C
Wind Chill: 6°C
Daggpunkt: 7°C
Luftfuktighet: 87%
Barometer: 998 hPa
Clouds: Klart
Visibility: 10 km
2021/09/23 21:20 ESGT 232120Z AUTO 30010KT 9999 NCD 09/07 Q0998